CCGS Samuel Risley — CG2960 — position and weather

sailwx.info

Track history (hours):
 
Tides and Currents Weather Stations Pressure Air Temp Water Temp Dewpoint Dewpoint Depression Visibility Wind Speed Wind Dir Waves Ship Positions

CCGS Samuel Risley (Canada)

Medium Navaids Tender - Light Icebreaker

Last reported at 2016-Sep-27 21:00 UTC. Time now 2016-Sep-27 22:23 UTC.
Position N 47°36' W 052°42'.

Length 69.73 m; beam 13.7 m; draft 5.2 m.

Type: SAR. MMSI: 316001890.

Barometer 1012.7 mb
Air temperature 9.7 ° C
Dewpoint 7.5 ° C

Date/timePositionNaut miles runAvg speedWind from/ knotsBaromVisibWave heightAir tempDewpointWater temp
2016-Sep-27 21:00N 47°36' W 052°42'3 1.9 1012.7 9.7 7.5
2016-Sep-27 19:31N 47°33' W 052°43'3 1.8
2016-Sep-27 18:00N 47°36' W 052°42'0 0.0 130 / 21011.3 8.9 7.3
2016-Sep-27 15:00N 47°36' W 052°42'3 5.2 220 / 51011.0 10.0 4.0
2016-Sep-27 14:28N 47°33' W 052°43'0 0.0
2016-Sep-27 13:22N 47°33' W 052°43'3 2.0
2016-Sep-27 12:00N 47°36' W 052°42'3 1.8 260 / 41010.3 7.2 4.2
2016-Sep-27 10:28N 47°33' W 052°43'3 5.9
2016-Sep-27 10:00N 47°36' W 052°42'0 0.0 230 / 11008.5 6.0 4.1
2016-Sep-27 06:00N 47°36' W 052°42'0 0.0 010 / 21006.4 7.4 6.9
2016-Sep-27 04:00N 47°36' W 052°42'0 0.0 210 / 31006.4 6.9 6.5
2016-Sep-27 03:00N 47°36' W 052°42'0 0.0 210 / 41006.4 6.8 6.2
2016-Sep-27 01:00N 47°36' W 052°42'0 0.0 210 / 31006.3 7.5 6.6
2016-Sep-26 23:00N 47°36' W 052°42'0 0.0 210 / 21005.7 8.4 6.6
2016-Sep-26 22:00N 47°36' W 052°42'3 1.1 360 / 21005.2 8.7 6.6
2016-Sep-26 19:22N 47°33' W 052°43'3 7.5
2016-Sep-26 19:00N 47°36' W 052°42'0 0.0 360 / 41003.0 10.1 6.3
2016-Sep-26 18:00N 47°36' W 052°42'0 0.0 240 / 81003.0 10.3 6.1
2016-Sep-26 17:00N 47°36' W 052°42'3 1.6 290 / 51003.0 10.0 5.6
2016-Sep-26 15:16N 47°33' W 052°43'3 2.2
2016-Sep-26 14:00N 47°36' W 052°42'3 5.2 270 / 71003.1 9.0 5.1
2016-Sep-26 13:28N 47°33' W 052°43'3 5.9
2016-Sep-26 13:00N 47°36' W 052°42'3 1.7 260 / 71002.7 8.6 4.7
2016-Sep-26 11:22N 47°33' W 052°43'3 7.5
2016-Sep-26 11:00N 47°36' W 052°42'0 0.0 230 / 61001.8 7.3 4.7
2016-Sep-26 10:00N 47°36' W 052°42'0 0.0 210 / 61001.7 4.7 3.5
2016-Sep-26 09:00N 47°36' W 052°42'3 5.7 200 / 61001.2 3.9 3.1
2016-Sep-26 08:31N 47°33' W 052°43'3 1.8
2016-Sep-26 07:00N 47°36' W 052°42'0 0.0 210 / 61000.9 4.5 3.3
2016-Sep-26 06:00N 47°36' W 052°42'0 0.0 210 / 51000.8 5.4 3.5
2016-Sep-26 05:00N 47°36' W 052°42'0 0.0 210 / 41000.9 5.8 3.6
2016-Sep-26 04:00N 47°36' W 052°42'3 1.9 220 / 31000.9 7.1 4.1
2016-Sep-26 02:31N 47°33' W 052°43'3 5.3
2016-Sep-26 02:00N 47°36' W 052°42'3 5.7 220 / 31001.0 8.2 4.5
2016-Sep-26 01:31N 47°33' W 052°43'0 0.0
2016-Sep-26 00:31N 47°33' W 052°43'3 5.4
2016-Sep-26 00:00N 47°36' W 052°42'0 0.0 210 / 41001.0 8.4 5.3
2016-Sep-25 23:00N 47°36' W 052°42'0 0.0 180 / 31001.2 8.7 4.5
2016-Sep-25 22:00N 47°36' W 052°42'3 5.7 190 / 31000.3 9.5 5.9
2016-Sep-25 21:31N 47°33' W 052°43'3 5.3
2016-Sep-25 21:00N 47°36' W 052°42'0 0.0 170 / 31000.3 9.4 5.5
2016-Sep-25 20:00N 47°36' W 052°42'3 1.1 170 / 31000.4 10.2 4.9
2016-Sep-25 17:28N 47°33' W 052°43'3 5.9
2016-Sep-25 17:00N 47°36' W 052°42'3 5.2 320 / 31000.8 11.5 1.8
2016-Sep-25 16:28N 47°33' W 052°43'0 0.0
2016-Sep-25 15:28N 47°33' W 052°43'3 5.9
2016-Sep-25 15:00N 47°36' W 052°42'3 5.2 310 / 51001.3 10.0 4.7
2016-Sep-25 14:28N 47°33' W 052°43'3 5.9
2016-Sep-25 14:00N 47°36' W 052°42'3 1.8 260 / 51001.8 10.1 3.4
2016-Sep-25 12:28N 47°33' W 052°43'0 0.0
2016-Sep-25 11:28N 47°33' W 052°43'0 0.0
2016-Sep-25 10:28N 47°33' W 052°43'3 5.9
2016-Sep-25 10:00N 47°36' W 052°42'3 5.2 210 / 51003.1 2.3 2.0
2016-Sep-25 09:28N 47°33' W 052°43'3 1.9
2016-Sep-25 08:00N 47°36' W 052°42'3 5.2 210 / 61003.3 3.1 2.5
2016-Sep-25 07:28N 47°33' W 052°43'3 1.9
2016-Sep-25 06:00N 47°36' W 052°42'0 0.0 200 / 51003.8 2.7 2.3
2016-Sep-25 05:00N 47°36' W 052°42'3 5.2 210 / 61004.8 3.5 2.9
2016-Sep-25 04:28N 47°33' W 052°43'3 5.9
2016-Sep-25 04:00N 47°36' W 052°42'0 0.0 210 / 51004.5 4.6 3.8
2016-Sep-25 03:00N 47°36' W 052°42'0 0.0 210 / 31005.0 5.3 4.3
2016-Sep-25 01:00N 47°36' W 052°42'3 5.2 230 / 21005.3 7.2 4.9
2016-Sep-25 00:28N 47°33' W 052°43'3 5.9
2016-Sep-25 00:00N 47°36' W 052°42'3 1.8 290 / 11005.5 8.2 5.3
2016-Sep-24 22:28N 47°33' W 052°43'3 5.9
2016-Sep-24 22:00N 47°36' W 052°42'3 4.4 360 / 41004.2 10.1 6.2
2016-Sep-24 21:22N 47°33' W 052°43'3 7.5
2016-Sep-24 21:00N 47°36' W 052°42'0 0.0 350 / 41003.4 10.5 8.0
2016-Sep-24 20:00N 47°36' W 052°42'3 5.2 360 / 81003.1 11.5 8.8
2016-Sep-24 19:28N 47°33' W 052°43'3 5.9
2016-Sep-24 19:00N 47°36' W 052°42'3 5.2 350 / 71002.8 11.4 9.1
2016-Sep-24 18:28N 47°33' W 052°43'3 5.9
2016-Sep-24 18:00N 47°36' W 052°42'3 5.2 020 / 101001.4 12.210.3
2016-Sep-24 17:28N 47°33' W 052°43'0 0.0
2016-Sep-24 16:28N 47°33' W 052°43'3 5.9
2016-Sep-24 16:00N 47°36' W 052°42'3 1.8 010 / 101000.8 13.110.1
2016-Sep-24 14:28N 47°33' W 052°43'3 5.9
2016-Sep-24 14:00N 47°36' W 052°42'0 0.0 020 / 71001.3 12.210.8
2016-Sep-24 13:00N 47°36' W 052°42'3 5.2 310 / 31000.9 14.213.1
2016-Sep-24 12:28N 47°33' W 052°43'3 1.9
2016-Sep-24 11:00N 47°36' W 052°42'3 5.2 230 / 51001.6 14.213.5
2016-Sep-24 10:28N 47°33' W 052°43'0 0.0
2016-Sep-24 09:28N 47°33' W 052°43'3 0.8
2016-Sep-24 06:00N 47°36' W 052°42'3 1.1 1007.9 10.710.0
2016-Sep-24 03:28N 47°33' W 052°43'0 0.0
2016-Sep-24 02:28N 47°33' W 052°43'3 5.9
2016-Sep-24 02:00N 47°36' W 052°42'3 5.7 200 / 21011.5 11.410.8
2016-Sep-24 01:31N 47°33' W 052°43'3 5.3
2016-Sep-24 01:00N 47°36' W 052°42'3 4.4 200 / 41012.7 11.510.7
2016-Sep-24 00:22N 47°33' W 052°43'3 2.0
2016-Sep-23 23:00N 47°36' W 052°42'0 0.0 180 / 11013.7 11.410.4
2016-Sep-23 20:00N 47°36' W 052°42'3 5.7 230 / 31015.1 11.5 9.6
2016-Sep-23 19:31N 47°33' W 052°43'3 1.8
2016-Sep-23 18:00N 47°36' W 052°42'3 5.2 110 / 31015.5 12.0 9.5
2016-Sep-23 17:28N 47°33' W 052°43'3 5.9
2016-Sep-23 17:00N 47°36' W 052°42'3 5.2 080 / 61015.7 12.3 9.7
2016-Sep-23 16:28N 47°33' W 052°43'3 5.9
2016-Sep-23 16:00N 47°36' W 052°42'3 5.7 040 / 31016.4 12.9 9.4
2016-Sep-23 15:31N 47°33' W 052°43'3 1.8
2016-Sep-23 14:00N 47°36' W 052°42'3 4.4 290 / 51016.0 13.1 8.0
2016-Sep-23 13:22N 47°33' W 052°43'3 7.5
2016-Sep-23 13:00N 47°36' W 052°42'0 0.0 350 / 41015.7 13.3 8.3
2016-Sep-23 11:00N 47°36' W 052°42'3 1.8 270 / 31015.3 12.4 9.7
2016-Sep-23 09:28N 47°33' W 052°43'0 0.0
2016-Sep-23 06:28N 47°33' W 052°43'3 5.9
2016-Sep-23 06:00N 47°36' W 052°42'0 0.0 210 / 51011.9 11.3 8.6
2016-Sep-23 05:00N 47°36' W 052°42'3 4.4 210 / 31011.2 11.9 8.8
2016-Sep-23 04:22N 47°33' W 052°43'0 0.0
2016-Sep-23 03:31N 47°33' W 052°43'3 5.3
2016-Sep-23 03:00N 47°36' W 052°42'3 5.7 200 / 61010.7 12.910.3
2016-Sep-23 02:31N 47°33' W 052°43'3 5.3
2016-Sep-23 02:00N 47°36' W 052°42'3 5.2 200 / 61010.3 12.810.6
2016-Sep-23 01:28N 47°33' W 052°43'0 0.0
2016-Sep-23 00:22N 47°33' W 052°43'3 7.5
2016-Sep-23 00:00N 47°36' W 052°42'3 5.2 210 / 81009.1 13.611.0
2016-Sep-22 23:28N 47°33' W 052°43'3 5.9
2016-Sep-22 23:00N 47°36' W 052°42'0 0.0 210 / 71008.2 13.911.5
2016-Sep-22 22:00N 47°36' W 052°42'3 1.8 210 / 51007.2 14.012.1
2016-Sep-22 20:28N 47°33' W 052°43'3 1.9
2016-Sep-22 19:00N 47°36' W 052°42'0 0.0 230 / 81005.8 18.210.4
2016-Sep-22 18:00N 47°36' W 052°42'0 0.0 240 / 101005.3 19.4 9.8
2016-Sep-22 16:00N 47°36' W 052°42'0 0.0 250 / 111005.9 19.0 9.6
2016-Sep-22 15:00N 47°36' W 052°42'3 1.1 240 / 111005.9 18.4 9.6
2016-Sep-22 12:28N 47°33' W 052°43'3 1.9
2016-Sep-22 11:00N 47°36' W 052°42'0 0.0 220 / 71006.2 13.711.0
2016-Sep-22 10:00N 47°36' W 052°42'0 0.0 200 / 41006.0 13.010.9
2016-Sep-22 09:00N 47°36' W 052°42'0 0.0 210 / 81006.0 13.211.0
2016-Sep-22 08:00N 47°36' W 052°42'0 0.0 210 / 71005.0 13.210.8
2016-Sep-22 07:00N 47°36' W 052°42'3 1.1 220 / 131005.1 13.610.4
2016-Sep-22 04:31N 47°33' W 052°43'0 0.0
2016-Sep-22 03:31N 47°33' W 052°43'3 5.3
2016-Sep-22 03:00N 47°36' W 052°42'0 0.0 220 / 111006.2 15.010.4
2016-Sep-22 01:00N 47°36' W 052°42'3 5.8 210 / 101006.8 14.711.1
2016-Sep-22 00:31N 47°33' W 052°43'3 5.3
2016-Sep-22 00:00N 47°36' W 052°42'3 4.4 210 / 71007.6 15.011.3
2016-Sep-21 23:22N 47°33' W 052°43'0 0.0
2016-Sep-21 22:28N 47°33' W 052°43'3 5.9
2016-Sep-21 22:00N 47°36' W 052°42'0 0.0 220 / 91007.1 16.911.5
2016-Sep-21 20:00N 47°36' W 052°42'3 5.2 230 / 111007.1 18.614.7
2016-Sep-21 19:28N 47°33' W 052°43'3 5.9
2016-Sep-21 19:00N 47°36' W 052°42'0 0.0 250 / 121007.0 20.115.1
2016-Sep-21 18:00N 47°36' W 052°42'0 0.0 220 / 111007.5 19.815.4
2016-Sep-21 17:00N 47°36' W 052°42'3 5.2 230 / 91008.0 20.815.4
2016-Sep-21 16:28N 47°33' W 052°43'3 0.5
2016-Sep-21 11:00N 47°36' W 052°42'3 1.6 200 / 31010.9 12.512.4
2016-Sep-21 09:19N 47°33' W 052°43'0 0.0
2016-Sep-21 08:28N 47°33' W 052°43'3 5.9
2016-Sep-21 08:00N 47°36' W 052°42'0 0.0 030 / 31013.1 11.911.8
2016-Sep-21 07:00N 47°36' W 052°42'3 1.9 340 / 21013.9 11.911.8
2016-Sep-21 05:31N 47°33' W 052°43'3 5.3
2016-Sep-21 05:00N 47°36' W 052°42'3 1.8 330 / 11015.9 11.911.7
2016-Sep-21 03:28N 47°33' W 052°43'0 0.0
2016-Sep-21 02:31N 47°33' W 052°43'3 1.8
2016-Sep-21 01:00N 47°36' W 052°42'3 0.4 110 / 11020.1 11.010.4
2016-Sep-20 17:31N 47°33' W 052°43'3 1.1
2016-Sep-20 15:00N 47°36' W 052°42'3 4.1 050 / 41025.9 10.4 8.1
2016-Sep-20 14:19N 47°33' W 052°43'3 8.7
2016-Sep-20 14:00N 47°36' W 052°42'3 5.7 030 / 51026.5 9.9 7.9
2016-Sep-20 13:31N 47°33' W 052°43'3 1.8
2016-Sep-20 12:00N 47°36' W 052°42'0 0.0 030 / 71026.6 9.6 7.5
2016-Sep-20 11:00N 47°36' W 052°42'3 5.2 030 / 51026.6 9.5 7.3
2016-Sep-20 10:28N 47°33' W 052°43'3 1.9
2016-Sep-20 09:00N 47°36' W 052°42'3 4.4 040 / 51026.4 9.3 7.0
2016-Sep-20 08:22N 47°33' W 052°43'0 0.0
2016-Sep-20 07:28N 47°33' W 052°43'0 0.0
2016-Sep-20 06:31N 47°33' W 052°43'3 5.3
2016-Sep-20 06:00N 47°36' W 052°42'0 0.0 050 / 71026.5 9.0 6.7
2016-Sep-20 04:00N 47°36' W 052°42'3 1.5 050 / 71026.6 8.9 6.8
2016-Sep-20 02:10N 47°33' W 052°43'316.3
2016-Sep-20 02:00N 47°36' W 052°42'0 0.0 040 / 71027.0 8.6 7.0
2016-Sep-20 01:00N 47°36' W 052°42'3 1.7 040 / 91026.8 8.7 6.9
2016-Sep-19 23:22N 47°33' W 052°43'3 2.0
2016-Sep-19 22:00N 47°36' W 052°42'0 0.0 040 / 111025.0 9.1 6.4
2016-Sep-19 21:00N 47°36' W 052°42'3 1.8 040 / 131024.8 9.0 6.6
2016-Sep-19 19:28N 47°33' W 052°43'0 0.0
2016-Sep-19 16:28N 47°33' W 052°43'3 1.9
2016-Sep-19 15:00N 47°36' W 052°42'3 1.6 040 / 91022.4 9.5 8.8
2016-Sep-19 13:16N 47°33' W 052°43'310.3
2016-Sep-19 13:00N 47°36' W 052°42'3 5.2 030 / 141021.3 9.9 9.3
2016-Sep-19 12:28N 47°33' W 052°43'0 0.0
2016-Sep-19 11:04N 47°33' W 052°43'3 2.6
2016-Sep-19 10:00N 47°36' W 052°42'3 5.2 290 / 41017.8 12.011.1
2016-Sep-19 09:28N 47°33' W 052°43'3 5.9
2016-Sep-19 09:00N 47°36' W 052°42'0 0.0 330 / 31016.6 14.813.6
2016-Sep-19 08:00N 47°36' W 052°42'3 4.8 240 / 61015.7 17.216.1
2016-Sep-19 07:25N 47°33' W 052°43'0 0.0
2016-Sep-19 06:31N 47°33' W 052°43'3 5.3
2016-Sep-19 06:00N 47°36' W 052°42'0 0.0 220 / 101014.3 17.716.4
2016-Sep-19 04:00N 47°36' W 052°42'0 0.0 210 / 141014.3 17.516.5
2016-Sep-19 03:00N 47°36' W 052°42'3 3.0 210 / 141014.9 17.916.1
2016-Sep-19 02:04N 47°33' W 052°43'340.7
2016-Sep-19 02:00N 47°36' W 052°42'0 0.0 210 / 151015.3 18.515.1
2016-Sep-19 01:00N 47°36' W 052°42'3 5.2 210 / 151015.6 18.614.9
2016-Sep-19 00:28N 47°33' W 052°43'3 1.1
2016-Sep-18 22:00N 47°36' W 052°42'0 0.0 210 / 131016.9 18.014.7
2016-Sep-18 21:00N 47°36' W 052°42'0 0.0 210 / 171016.8 19.414.2
2016-Sep-18 18:00N 47°36' W 052°42'0 0.0 210 / 161019.0 19.813.8
2016-Sep-18 16:00N 47°36' W 052°42'0 0.0 210 / 131020.1 18.015.6
2016-Sep-18 13:00N 47°36' W 052°42'0 0.0 220 / 121020.8 19.013.6
2016-Sep-18 11:00N 47°36' W 052°42'3 5.7 200 / 81021.5 15.112.7
2016-Sep-18 10:31N 47°33' W 052°43'3 5.3
2016-Sep-18 10:00N 47°36' W 052°42'0 0.0 200 / 51022.0 13.912.2
2016-Sep-18 09:00N 47°36' W 052°42'0 0.0 210 / 71021.9 13.812.2
2016-Sep-18 08:00N 47°36' W 052°42'0 0.0 210 / 61022.2 13.211.9
2016-Sep-18 04:00N 47°36' W 052°42'0 0.0 200 / 91023.3 13.911.5
2016-Sep-18 03:00N 47°36' W 052°42'3 3.3 210 / 71023.8 14.211.6
2016-Sep-18 02:10N 47°33' W 052°43'0 0.0
2016-Sep-18 01:28N 47°33' W 052°43'0 0.0
2016-Sep-18 00:17N 47°33' W 052°43'3 9.6
2016-Sep-18 00:00N 47°36' W 052°42'0 0.0 210 / 91023.4 14.610.7
2016-Sep-17 23:00N 47°36' W 052°42'0 0.0 210 / 121023.0 15.211.2
2016-Sep-17 22:00N 47°36' W 052°42'3 4.4 220 / 111022.7 15.810.9
2016-Sep-17 21:22N 47°33' W 052°43'3 7.4
2016-Sep-17 21:00N 47°36' W 052°42'   230 / 101022.3 17.110.7
Track history (hours):
 
Tides and Currents Weather Stations Pressure Air Temp Water Temp Dewpoint Dewpoint Depression Visibility Wind Speed Wind Dir Waves Ship Positions

CCGS Samuel Risley (Canada)

Medium Navaids Tender - Light Icebreaker

Last reported at 2016-Sep-27 21:00 UTC. Time now 2016-Sep-27 22:23 UTC.
Position N 47°36' W 052°42'.

Length 69.73 m; beam 13.7 m; draft 5.2 m.

Type: SAR. MMSI: 316001890.

Barometer 1012.7 mb
Air temperature 9.7 ° C
Dewpoint 7.5 ° C

Date/timePositionNaut miles runAvg speedWind from/ knotsBaromVisibWave heightAir tempDewpointWater temp
2016-Sep-27 21:00N 47°36' W 052°42'3 1.9 1012.7 9.7 7.5
2016-Sep-27 19:31N 47°33' W 052°43'3 1.8
2016-Sep-27 18:00N 47°36' W 052°42'0 0.0 130 / 21011.3 8.9 7.3
2016-Sep-27 15:00N 47°36' W 052°42'3 5.2 220 / 51011.0 10.0 4.0
2016-Sep-27 14:28N 47°33' W 052°43'0 0.0
2016-Sep-27 13:22N 47°33' W 052°43'3 2.0
2016-Sep-27 12:00N 47°36' W 052°42'3 1.8 260 / 41010.3 7.2 4.2
2016-Sep-27 10:28N 47°33' W 052°43'3 5.9
2016-Sep-27 10:00N 47°36' W 052°42'0 0.0 230 / 11008.5 6.0 4.1
2016-Sep-27 06:00N 47°36' W 052°42'0 0.0 010 / 21006.4 7.4 6.9
2016-Sep-27 04:00N 47°36' W 052°42'0 0.0 210 / 31006.4 6.9 6.5
2016-Sep-27 03:00N 47°36' W 052°42'0 0.0 210 / 41006.4 6.8 6.2
2016-Sep-27 01:00N 47°36' W 052°42'0 0.0 210 / 31006.3 7.5 6.6
2016-Sep-26 23:00N 47°36' W 052°42'0 0.0 210 / 21005.7 8.4 6.6
2016-Sep-26 22:00N 47°36' W 052°42'3 1.1 360 / 21005.2 8.7 6.6
2016-Sep-26 19:22N 47°33' W 052°43'3 7.5
2016-Sep-26 19:00N 47°36' W 052°42'0 0.0 360 / 41003.0 10.1 6.3
2016-Sep-26 18:00N 47°36' W 052°42'0 0.0 240 / 81003.0 10.3 6.1
2016-Sep-26 17:00N 47°36' W 052°42'3 1.6 290 / 51003.0 10.0 5.6
2016-Sep-26 15:16N 47°33' W 052°43'3 2.2
2016-Sep-26 14:00N 47°36' W 052°42'3 5.2 270 / 71003.1 9.0 5.1
2016-Sep-26 13:28N 47°33' W 052°43'3 5.9
2016-Sep-26 13:00N 47°36' W 052°42'3 1.7 260 / 71002.7 8.6 4.7
2016-Sep-26 11:22N 47°33' W 052°43'3 7.5
2016-Sep-26 11:00N 47°36' W 052°42'0 0.0 230 / 61001.8 7.3 4.7
2016-Sep-26 10:00N 47°36' W 052°42'0 0.0 210 / 61001.7 4.7 3.5
2016-Sep-26 09:00N 47°36' W 052°42'3 5.7 200 / 61001.2 3.9 3.1
2016-Sep-26 08:31N 47°33' W 052°43'3 1.8
2016-Sep-26 07:00N 47°36' W 052°42'0 0.0 210 / 61000.9 4.5 3.3
2016-Sep-26 06:00N 47°36' W 052°42'0 0.0 210 / 51000.8 5.4 3.5
2016-Sep-26 05:00N 47°36' W 052°42'0 0.0 210 / 41000.9 5.8 3.6
2016-Sep-26 04:00N 47°36' W 052°42'3 1.9 220 / 31000.9 7.1 4.1
2016-Sep-26 02:31N 47°33' W 052°43'3 5.3
2016-Sep-26 02:00N 47°36' W 052°42'3 5.7 220 / 31001.0 8.2 4.5
2016-Sep-26 01:31N 47°33' W 052°43'0 0.0
2016-Sep-26 00:31N 47°33' W 052°43'3 5.4
2016-Sep-26 00:00N 47°36' W 052°42'0 0.0 210 / 41001.0 8.4 5.3
2016-Sep-25 23:00N 47°36' W 052°42'0 0.0 180 / 31001.2 8.7 4.5
2016-Sep-25 22:00N 47°36' W 052°42'3 5.7 190 / 31000.3 9.5 5.9
2016-Sep-25 21:31N 47°33' W 052°43'3 5.3
2016-Sep-25 21:00N 47°36' W 052°42'0 0.0 170 / 31000.3 9.4 5.5
2016-Sep-25 20:00N 47°36' W 052°42'3 1.1 170 / 31000.4 10.2 4.9
2016-Sep-25 17:28N 47°33' W 052°43'3 5.9
2016-Sep-25 17:00N 47°36' W 052°42'3 5.2 320 / 31000.8 11.5 1.8
2016-Sep-25 16:28N 47°33' W 052°43'0 0.0
2016-Sep-25 15:28N 47°33' W 052°43'3 5.9
2016-Sep-25 15:00N 47°36' W 052°42'3 5.2 310 / 51001.3 10.0 4.7
2016-Sep-25 14:28N 47°33' W 052°43'3 5.9
2016-Sep-25 14:00N 47°36' W 052°42'3 1.8 260 / 51001.8 10.1 3.4
2016-Sep-25 12:28N 47°33' W 052°43'0 0.0
2016-Sep-25 11:28N 47°33' W 052°43'0 0.0
2016-Sep-25 10:28N 47°33' W 052°43'3 5.9
2016-Sep-25 10:00N 47°36' W 052°42'3 5.2 210 / 51003.1 2.3 2.0
2016-Sep-25 09:28N 47°33' W 052°43'3 1.9
2016-Sep-25 08:00N 47°36' W 052°42'3 5.2 210 / 61003.3 3.1 2.5
2016-Sep-25 07:28N 47°33' W 052°43'3 1.9
2016-Sep-25 06:00N 47°36' W 052°42'0 0.0 200 / 51003.8 2.7 2.3
2016-Sep-25 05:00N 47°36' W 052°42'3 5.2 210 / 61004.8 3.5 2.9
2016-Sep-25 04:28N 47°33' W 052°43'3 5.9
2016-Sep-25 04:00N 47°36' W 052°42'0 0.0 210 / 51004.5 4.6 3.8
2016-Sep-25 03:00N 47°36' W 052°42'0 0.0 210 / 31005.0 5.3 4.3
2016-Sep-25 01:00N 47°36' W 052°42'3 5.2 230 / 21005.3 7.2 4.9
2016-Sep-25 00:28N 47°33' W 052°43'3 5.9
2016-Sep-25 00:00N 47°36' W 052°42'3 1.8 290 / 11005.5 8.2 5.3
2016-Sep-24 22:28N 47°33' W 052°43'3 5.9
2016-Sep-24 22:00N 47°36' W 052°42'3 4.4 360 / 41004.2 10.1 6.2
2016-Sep-24 21:22N 47°33' W 052°43'3 7.5
2016-Sep-24 21:00N 47°36' W 052°42'0 0.0 350 / 41003.4 10.5 8.0
2016-Sep-24 20:00N 47°36' W 052°42'3 5.2 360 / 81003.1 11.5 8.8
2016-Sep-24 19:28N 47°33' W 052°43'3 5.9
2016-Sep-24 19:00N 47°36' W 052°42'3 5.2 350 / 71002.8 11.4 9.1
2016-Sep-24 18:28N 47°33' W 052°43'3 5.9
2016-Sep-24 18:00N 47°36' W 052°42'3 5.2 020 / 101001.4 12.210.3
2016-Sep-24 17:28N 47°33' W 052°43'0 0.0
2016-Sep-24 16:28N 47°33' W 052°43'3 5.9
2016-Sep-24 16:00N 47°36' W 052°42'3 1.8 010 / 101000.8 13.110.1
2016-Sep-24 14:28N 47°33' W 052°43'3 5.9
2016-Sep-24 14:00N 47°36' W 052°42'0 0.0 020 / 71001.3 12.210.8
2016-Sep-24 13:00N 47°36' W 052°42'3 5.2 310 / 31000.9 14.213.1
2016-Sep-24 12:28N 47°33' W 052°43'3 1.9
2016-Sep-24 11:00N 47°36' W 052°42'3 5.2 230 / 51001.6 14.213.5
2016-Sep-24 10:28N 47°33' W 052°43'0 0.0
2016-Sep-24 09:28N 47°33' W 052°43'3 0.8
2016-Sep-24 06:00N 47°36' W 052°42'3 1.1 1007.9 10.710.0
2016-Sep-24 03:28N 47°33' W 052°43'0 0.0
2016-Sep-24 02:28N 47°33' W 052°43'3 5.9
2016-Sep-24 02:00N 47°36' W 052°42'3 5.7 200 / 21011.5 11.410.8
2016-Sep-24 01:31N 47°33' W 052°43'3 5.3
2016-Sep-24 01:00N 47°36' W 052°42'3 4.4 200 / 41012.7 11.510.7
2016-Sep-24 00:22N 47°33' W 052°43'3 2.0
2016-Sep-23 23:00N 47°36' W 052°42'0 0.0 180 / 11013.7 11.410.4
2016-Sep-23 20:00N 47°36' W 052°42'3 5.7 230 / 31015.1 11.5 9.6
2016-Sep-23 19:31N 47°33' W 052°43'3 1.8
2016-Sep-23 18:00N 47°36' W 052°42'3 5.2 110 / 31015.5 12.0 9.5
2016-Sep-23 17:28N 47°33' W 052°43'3 5.9
2016-Sep-23 17:00N 47°36' W 052°42'3 5.2 080 / 61015.7 12.3 9.7
2016-Sep-23 16:28N 47°33' W 052°43'3 5.9
2016-Sep-23 16:00N 47°36' W 052°42'3 5.7 040 / 31016.4 12.9 9.4
2016-Sep-23 15:31N 47°33' W 052°43'3 1.8
2016-Sep-23 14:00N 47°36' W 052°42'3 4.4 290 / 51016.0 13.1 8.0
2016-Sep-23 13:22N 47°33' W 052°43'3 7.5
2016-Sep-23 13:00N 47°36' W 052°42'0 0.0 350 / 41015.7 13.3 8.3
2016-Sep-23 11:00N 47°36' W 052°42'3 1.8 270 / 31015.3 12.4 9.7
2016-Sep-23 09:28N 47°33' W 052°43'0 0.0
2016-Sep-23 06:28N 47°33' W 052°43'3 5.9
2016-Sep-23 06:00N 47°36' W 052°42'0 0.0 210 / 51011.9 11.3 8.6
2016-Sep-23 05:00N 47°36' W 052°42'3 4.4 210 / 31011.2 11.9 8.8
2016-Sep-23 04:22N 47°33' W 052°43'0 0.0
2016-Sep-23 03:31N 47°33' W 052°43'3 5.3
2016-Sep-23 03:00N 47°36' W 052°42'3 5.7 200 / 61010.7 12.910.3
2016-Sep-23 02:31N 47°33' W 052°43'3 5.3
2016-Sep-23 02:00N 47°36' W 052°42'3 5.2 200 / 61010.3 12.810.6
2016-Sep-23 01:28N 47°33' W 052°43'0 0.0
2016-Sep-23 00:22N 47°33' W 052°43'3 7.5
2016-Sep-23 00:00N 47°36' W 052°42'3 5.2 210 / 81009.1 13.611.0
2016-Sep-22 23:28N 47°33' W 052°43'3 5.9
2016-Sep-22 23:00N 47°36' W 052°42'0 0.0 210 / 71008.2 13.911.5
2016-Sep-22 22:00N 47°36' W 052°42'3 1.8 210 / 51007.2 14.012.1
2016-Sep-22 20:28N 47°33' W 052°43'3 1.9
2016-Sep-22 19:00N 47°36' W 052°42'0 0.0 230 / 81005.8 18.210.4
2016-Sep-22 18:00N 47°36' W 052°42'0 0.0 240 / 101005.3 19.4 9.8
2016-Sep-22 16:00N 47°36' W 052°42'0 0.0 250 / 111005.9 19.0 9.6
2016-Sep-22 15:00N 47°36' W 052°42'3 1.1 240 / 111005.9 18.4 9.6
2016-Sep-22 12:28N 47°33' W 052°43'3 1.9
2016-Sep-22 11:00N 47°36' W 052°42'0 0.0 220 / 71006.2 13.711.0
2016-Sep-22 10:00N 47°36' W 052°42'0 0.0 200 / 41006.0 13.010.9
2016-Sep-22 09:00N 47°36' W 052°42'0 0.0 210 / 81006.0 13.211.0
2016-Sep-22 08:00N 47°36' W 052°42'0 0.0 210 / 71005.0 13.210.8
2016-Sep-22 07:00N 47°36' W 052°42'3 1.1 220 / 131005.1 13.610.4
2016-Sep-22 04:31N 47°33' W 052°43'0 0.0
2016-Sep-22 03:31N 47°33' W 052°43'3 5.3
2016-Sep-22 03:00N 47°36' W 052°42'0 0.0 220 / 111006.2 15.010.4
2016-Sep-22 01:00N 47°36' W 052°42'3 5.8 210 / 101006.8 14.711.1
2016-Sep-22 00:31N 47°33' W 052°43'3 5.3
2016-Sep-22 00:00N 47°36' W 052°42'3 4.4 210 / 71007.6 15.011.3
2016-Sep-21 23:22N 47°33' W 052°43'0 0.0
2016-Sep-21 22:28N 47°33' W 052°43'3 5.9
2016-Sep-21 22:00N 47°36' W 052°42'0 0.0 220 / 91007.1 16.911.5
2016-Sep-21 20:00N 47°36' W 052°42'3 5.2 230 / 111007.1 18.614.7
2016-Sep-21 19:28N 47°33' W 052°43'3 5.9
2016-Sep-21 19:00N 47°36' W 052°42'0 0.0 250 / 121007.0 20.115.1
2016-Sep-21 18:00N 47°36' W 052°42'0 0.0 220 / 111007.5 19.815.4
2016-Sep-21 17:00N 47°36' W 052°42'3 5.2 230 / 91008.0 20.815.4
2016-Sep-21 16:28N 47°33' W 052°43'3 0.5
2016-Sep-21 11:00N 47°36' W 052°42'3 1.6 200 / 31010.9 12.512.4
2016-Sep-21 09:19N 47°33' W 052°43'0 0.0
2016-Sep-21 08:28N 47°33' W 052°43'3 5.9
2016-Sep-21 08:00N 47°36' W 052°42'0 0.0 030 / 31013.1 11.911.8
2016-Sep-21 07:00N 47°36' W 052°42'3 1.9 340 / 21013.9 11.911.8
2016-Sep-21 05:31N 47°33' W 052°43'3 5.3
2016-Sep-21 05:00N 47°36' W 052°42'3 1.8 330 / 11015.9 11.911.7
2016-Sep-21 03:28N 47°33' W 052°43'0 0.0
2016-Sep-21 02:31N 47°33' W 052°43'3 1.8
2016-Sep-21 01:00N 47°36' W 052°42'3 0.4 110 / 11020.1 11.010.4
2016-Sep-20 17:31N 47°33' W 052°43'3 1.1
2016-Sep-20 15:00N 47°36' W 052°42'3 4.1 050 / 41025.9 10.4 8.1
2016-Sep-20 14:19N 47°33' W 052°43'3 8.7
2016-Sep-20 14:00N 47°36' W 052°42'3 5.7 030 / 51026.5 9.9 7.9
2016-Sep-20 13:31N 47°33' W 052°43'3 1.8
2016-Sep-20 12:00N 47°36' W 052°42'0 0.0 030 / 71026.6 9.6 7.5
2016-Sep-20 11:00N 47°36' W 052°42'3 5.2 030 / 51026.6 9.5 7.3
2016-Sep-20 10:28N 47°33' W 052°43'3 1.9
2016-Sep-20 09:00N 47°36' W 052°42'3 4.4 040 / 51026.4 9.3 7.0
2016-Sep-20 08:22N 47°33' W 052°43'0 0.0
2016-Sep-20 07:28N 47°33' W 052°43'0 0.0
2016-Sep-20 06:31N 47°33' W 052°43'3 5.3
2016-Sep-20 06:00N 47°36' W 052°42'0 0.0 050 / 71026.5 9.0 6.7
2016-Sep-20 04:00N 47°36' W 052°42'3 1.5 050 / 71026.6 8.9 6.8
2016-Sep-20 02:10N 47°33' W 052°43'316.3
2016-Sep-20 02:00N 47°36' W 052°42'0 0.0 040 / 71027.0 8.6 7.0
2016-Sep-20 01:00N 47°36' W 052°42'3 1.7 040 / 91026.8 8.7 6.9
2016-Sep-19 23:22N 47°33' W 052°43'3 2.0
2016-Sep-19 22:00N 47°36' W 052°42'0 0.0 040 / 111025.0 9.1 6.4
2016-Sep-19 21:00N 47°36' W 052°42'3 1.8 040 / 131024.8 9.0 6.6
2016-Sep-19 19:28N 47°33' W 052°43'0 0.0
2016-Sep-19 16:28N 47°33' W 052°43'3 1.9
2016-Sep-19 15:00N 47°36' W 052°42'3 1.6 040 / 91022.4 9.5 8.8
2016-Sep-19 13:16N 47°33' W 052°43'310.3
2016-Sep-19 13:00N 47°36' W 052°42'3 5.2 030 / 141021.3 9.9 9.3
2016-Sep-19 12:28N 47°33' W 052°43'0 0.0
2016-Sep-19 11:04N 47°33' W 052°43'3 2.6
2016-Sep-19 10:00N 47°36' W 052°42'3 5.2 290 / 41017.8 12.011.1
2016-Sep-19 09:28N 47°33' W 052°43'3 5.9
2016-Sep-19 09:00N 47°36' W 052°42'0 0.0 330 / 31016.6 14.813.6
2016-Sep-19 08:00N 47°36' W 052°42'3 4.8 240 / 61015.7 17.216.1
2016-Sep-19 07:25N 47°33' W 052°43'0 0.0
2016-Sep-19 06:31N 47°33' W 052°43'3 5.3
2016-Sep-19 06:00N 47°36' W 052°42'0 0.0 220 / 101014.3 17.716.4
2016-Sep-19 04:00N 47°36' W 052°42'0 0.0 210 / 141014.3 17.516.5
2016-Sep-19 03:00N 47°36' W 052°42'3 3.0 210 / 141014.9 17.916.1
2016-Sep-19 02:04N 47°33' W 052°43'340.7
2016-Sep-19 02:00N 47°36' W 052°42'0 0.0 210 / 151015.3 18.515.1
2016-Sep-19 01:00N 47°36' W 052°42'3 5.2 210 / 151015.6 18.614.9
2016-Sep-19 00:28N 47°33' W 052°43'3 1.1
2016-Sep-18 22:00N 47°36' W 052°42'0 0.0 210 / 131016.9 18.014.7
2016-Sep-18 21:00N 47°36' W 052°42'0 0.0 210 / 171016.8 19.414.2
2016-Sep-18 18:00N 47°36' W 052°42'0 0.0 210 / 161019.0 19.813.8
2016-Sep-18 16:00N 47°36' W 052°42'0 0.0 210 / 131020.1 18.015.6
2016-Sep-18 13:00N 47°36' W 052°42'0 0.0 220 / 121020.8 19.013.6
2016-Sep-18 11:00N 47°36' W 052°42'3 5.7 200 / 81021.5 15.112.7
2016-Sep-18 10:31N 47°33' W 052°43'3 5.3
2016-Sep-18 10:00N 47°36' W 052°42'0 0.0 200 / 51022.0 13.912.2
2016-Sep-18 09:00N 47°36' W 052°42'0 0.0 210 / 71021.9 13.812.2
2016-Sep-18 08:00N 47°36' W 052°42'0 0.0 210 / 61022.2 13.211.9
2016-Sep-18 04:00N 47°36' W 052°42'0 0.0 200 / 91023.3 13.911.5
2016-Sep-18 03:00N 47°36' W 052°42'3 3.3 210 / 71023.8 14.211.6
2016-Sep-18 02:10N 47°33' W 052°43'0 0.0
2016-Sep-18 01:28N 47°33' W 052°43'0 0.0
2016-Sep-18 00:17N 47°33' W 052°43'3 9.6
2016-Sep-18 00:00N 47°36' W 052°42'0 0.0 210 / 91023.4 14.610.7
2016-Sep-17 23:00N 47°36' W 052°42'0 0.0 210 / 121023.0 15.211.2
2016-Sep-17 22:00N 47°36' W 052°42'3 4.4 220 / 111022.7 15.810.9
2016-Sep-17 21:22N 47°33' W 052°43'3 7.4
2016-Sep-17 21:00N 47°36' W 052°42'   230 / 101022.3 17.110.7

Dump ship's entire track history